FIN27J EFTU-EKCH
Flight info
| Callsign | FIN27J |
|---|---|
| Flight time | 1h 22m |
| Altitude | 36000 |
| Route | EMPOM DCT TOKSI N872 ERNOV |
| Aircraft | A320/M-VGDW/C |
Departure
| Time | 2026-05-04 16:23 |
|---|---|
| Airport | Turku Airport (EFTU) |
Arrival
| Time | 2026-05-04 17:46 |
|---|---|
| Airport | Copenhagen Kastrup Airport (EKCH) |
| Time | Latitude | Longitude | Altitude | Speed | Heading |
|---|---|---|---|---|---|
| 2026-05-04 16:12 | 60.51277 | 22.27430 | 129 ft | 0 kts | 174° |
| 2026-05-04 16:17 | 60.51276 | 22.27430 | 128 ft | 0 kts | 174° |
| 2026-05-04 16:18 | 60.51331 | 22.27375 | 128 ft | 11 kts | 60° |
| 2026-05-04 16:18 | 60.51349 | 22.27567 | 126 ft | 15 kts | 83° |
| 2026-05-04 16:19 | 60.51379 | 22.28262 | 122 ft | 19 kts | 85° |
| 2026-05-04 16:19 | 60.51410 | 22.28507 | 118 ft | 0 kts | 34° |
| 2026-05-04 16:21 | 60.51423 | 22.28522 | 118 ft | 5 kts | 26° |
| 2026-05-04 16:22 | 60.51501 | 22.28459 | 118 ft | 11 kts | 294° |
| 2026-05-04 16:22 | 60.51451 | 22.27206 | 131 ft | 111 kts | 264° |
| 2026-05-04 16:23 | 60.51144 | 22.20629 | 1708 ft | 161 kts | 264° |
| 2026-05-04 16:24 | 60.50051 | 22.11101 | 4089 ft | 213 kts | 223° |
| 2026-05-04 16:25 | 60.47427 | 22.07428 | 5234 ft | 249 kts | 219° |
| 2026-05-04 16:26 | 60.41495 | 21.99088 | 8786 ft | 268 kts | 219° |
| 2026-05-04 16:26 | 60.36840 | 21.92541 | 10986 ft | 290 kts | 219° |
| 2026-05-04 16:27 | 60.33530 | 21.87916 | 12665 ft | 295 kts | 219° |
| 2026-05-04 16:28 | 60.28462 | 21.80844 | 15085 ft | 300 kts | 219° |
| 2026-05-04 16:28 | 60.23302 | 21.73638 | 17291 ft | 306 kts | 221° |
| 2026-05-04 16:29 | 60.17973 | 21.60602 | 20004 ft | 309 kts | 238° |
| 2026-05-04 16:30 | 60.14365 | 21.49777 | 21865 ft | 317 kts | 238° |
| 2026-05-04 16:31 | 60.11907 | 21.42429 | 23085 ft | 321 kts | 238° |
| 2026-05-04 16:31 | 60.08156 | 21.31256 | 24746 ft | 329 kts | 238° |
| 2026-05-04 16:32 | 60.04288 | 21.19790 | 26246 ft | 338 kts | 238° |
| 2026-05-04 16:33 | 60.01642 | 21.11973 | 27206 ft | 343 kts | 238° |
| 2026-05-04 16:33 | 59.98957 | 21.04074 | 28092 ft | 349 kts | 238° |
| 2026-05-04 16:34 | 59.96229 | 20.96075 | 28853 ft | 354 kts | 238° |
| 2026-05-04 16:34 | 59.94845 | 20.92024 | 29210 ft | 357 kts | 238° |
| 2026-05-04 16:35 | 59.90623 | 20.79721 | 30281 ft | 363 kts | 238° |
| 2026-05-04 16:35 | 59.86339 | 20.67296 | 31161 ft | 369 kts | 239° |
| 2026-05-04 16:36 | 59.84893 | 20.63118 | 31438 ft | 370 kts | 239° |
| 2026-05-04 16:36 | 59.81974 | 20.54704 | 32045 ft | 371 kts | 239° |
| 2026-05-04 16:37 | 59.79064 | 20.46348 | 32636 ft | 369 kts | 239° |
| 2026-05-04 16:37 | 59.77614 | 20.42196 | 32918 ft | 368 kts | 239° |
| 2026-05-04 16:37 | 59.74714 | 20.33914 | 33426 ft | 368 kts | 238° |
| 2026-05-04 16:38 | 59.71799 | 20.25615 | 33924 ft | 368 kts | 238° |
| 2026-05-04 16:39 | 59.67419 | 20.13202 | 34532 ft | 371 kts | 238° |
| 2026-05-04 16:39 | 59.64472 | 20.04884 | 34920 ft | 373 kts | 238° |
| 2026-05-04 16:40 | 59.61491 | 19.96502 | 35272 ft | 376 kts | 238° |
| 2026-05-04 16:40 | 59.58488 | 19.88089 | 35571 ft | 379 kts | 238° |
| 2026-05-04 16:41 | 59.50872 | 19.66894 | 35637 ft | 382 kts | 238° |
| 2026-05-04 16:43 | 59.43044 | 19.45967 | 35635 ft | 383 kts | 235° |
| 2026-05-04 16:43 | 59.38032 | 19.33781 | 35636 ft | 384 kts | 234° |
| 2026-05-04 16:45 | 59.28034 | 19.09517 | 35640 ft | 384 kts | 235° |
| 2026-05-04 16:46 | 59.19688 | 18.89419 | 35638 ft | 384 kts | 235° |
| 2026-05-04 16:47 | 59.12965 | 18.73354 | 35639 ft | 385 kts | 235° |
| 2026-05-04 16:48 | 59.06201 | 18.57303 | 35650 ft | 386 kts | 235° |
| 2026-05-04 16:49 | 58.99413 | 18.41307 | 35652 ft | 386 kts | 235° |
| 2026-05-04 16:50 | 58.92594 | 18.25347 | 35651 ft | 386 kts | 234° |
| 2026-05-04 16:51 | 58.87472 | 18.13422 | 35651 ft | 387 kts | 234° |
| 2026-05-04 16:52 | 58.80605 | 17.97537 | 35661 ft | 388 kts | 234° |
| 2026-05-04 16:53 | 58.75441 | 17.85666 | 35664 ft | 388 kts | 234° |
| 2026-05-04 16:54 | 58.68526 | 17.69857 | 35668 ft | 388 kts | 234° |
| 2026-05-04 16:55 | 58.58087 | 17.46198 | 35668 ft | 390 kts | 234° |
| 2026-05-04 16:56 | 58.49345 | 17.26567 | 35686 ft | 391 kts | 233° |
| 2026-05-04 16:57 | 58.44070 | 17.14801 | 35680 ft | 390 kts | 233° |
| 2026-05-04 16:58 | 58.37030 | 16.99190 | 35681 ft | 391 kts | 234° |
| 2026-05-04 17:00 | 58.26392 | 16.75794 | 35676 ft | 392 kts | 233° |
| 2026-05-04 17:01 | 58.17473 | 16.56361 | 35685 ft | 394 kts | 233° |
| 2026-05-04 17:02 | 58.10302 | 16.40850 | 35691 ft | 395 kts | 233° |
| 2026-05-04 17:03 | 58.04877 | 16.29186 | 35698 ft | 396 kts | 233° |
| 2026-05-04 17:03 | 57.99419 | 16.17513 | 35700 ft | 397 kts | 233° |
| 2026-05-04 17:04 | 57.92137 | 16.02023 | 35723 ft | 396 kts | 233° |
| 2026-05-04 17:05 | 57.84855 | 15.86635 | 35731 ft | 397 kts | 233° |
| 2026-05-04 17:06 | 57.81191 | 15.78930 | 35477 ft | 397 kts | 233° |
| 2026-05-04 17:06 | 57.79364 | 15.75097 | 35587 ft | 398 kts | 233° |
| 2026-05-04 17:07 | 57.75692 | 15.67415 | 35694 ft | 399 kts | 232° |
| 2026-05-04 17:07 | 57.74456 | 15.64834 | 35712 ft | 399 kts | 232° |
| 2026-05-04 17:07 | 57.70150 | 15.55870 | 35731 ft | 399 kts | 232° |
| 2026-05-04 17:08 | 57.64607 | 15.44378 | 35739 ft | 399 kts | 232° |
| 2026-05-04 17:09 | 57.60905 | 15.36735 | 35744 ft | 400 kts | 232° |
| 2026-05-04 17:09 | 57.57180 | 15.29074 | 35750 ft | 400 kts | 232° |
| 2026-05-04 17:10 | 57.47883 | 15.10045 | 35756 ft | 400 kts | 232° |
| 2026-05-04 17:11 | 57.44145 | 15.02440 | 35761 ft | 400 kts | 231° |
| 2026-05-04 17:12 | 57.38541 | 14.91087 | 35734 ft | 402 kts | 231° |
| 2026-05-04 17:12 | 57.34793 | 14.83526 | 35407 ft | 400 kts | 231° |
| 2026-05-04 17:13 | 57.29201 | 14.72293 | 34938 ft | 395 kts | 231° |
| 2026-05-04 17:14 | 57.23677 | 14.61246 | 34356 ft | 392 kts | 232° |
| 2026-05-04 17:14 | 57.21840 | 14.57581 | 34103 ft | 392 kts | 232° |
| 2026-05-04 17:14 | 57.18128 | 14.50194 | 33619 ft | 394 kts | 232° |
| 2026-05-04 17:15 | 57.16275 | 14.46516 | 33375 ft | 395 kts | 232° |
| 2026-05-04 17:15 | 57.12552 | 14.39143 | 32883 ft | 396 kts | 232° |
| 2026-05-04 17:16 | 57.08809 | 14.31756 | 32383 ft | 399 kts | 231° |
| 2026-05-04 17:16 | 57.03127 | 14.20586 | 31617 ft | 402 kts | 230° |
| 2026-05-04 17:17 | 57.01227 | 14.16865 | 31251 ft | 399 kts | 230° |
| 2026-05-04 17:17 | 56.95613 | 14.05906 | 30003 ft | 391 kts | 230° |
| 2026-05-04 17:18 | 56.93773 | 14.02328 | 29587 ft | 386 kts | 230° |
| 2026-05-04 17:18 | 56.90135 | 13.95267 | 28750 ft | 378 kts | 231° |
| 2026-05-04 17:19 | 56.86568 | 13.88361 | 27948 ft | 370 kts | 231° |
| 2026-05-04 17:19 | 56.83089 | 13.81642 | 27141 ft | 363 kts | 231° |
| 2026-05-04 17:20 | 56.79654 | 13.75025 | 26314 ft | 358 kts | 231° |
| 2026-05-04 17:20 | 56.76272 | 13.68534 | 25488 ft | 352 kts | 231° |
| 2026-05-04 17:20 | 56.74602 | 13.65333 | 25070 ft | 350 kts | 231° |
| 2026-05-04 17:21 | 56.71299 | 13.59017 | 24245 ft | 344 kts | 231° |
| 2026-05-04 17:21 | 56.68031 | 13.52788 | 23441 ft | 338 kts | 231° |
| 2026-05-04 17:22 | 56.66418 | 13.49717 | 23042 ft | 336 kts | 231° |
| 2026-05-04 17:22 | 56.64825 | 13.46686 | 22653 ft | 333 kts | 231° |
| 2026-05-04 17:23 | 56.60100 | 13.37729 | 21410 ft | 327 kts | 231° |
| 2026-05-04 17:23 | 56.58543 | 13.34786 | 20999 ft | 325 kts | 230° |
| 2026-05-04 17:23 | 56.55438 | 13.28924 | 20151 ft | 322 kts | 230° |
| 2026-05-04 17:24 | 56.53900 | 13.26027 | 19730 ft | 321 kts | 230° |
| 2026-05-04 17:24 | 56.49330 | 13.17439 | 18504 ft | 315 kts | 230° |
| 2026-05-04 17:25 | 56.47822 | 13.14613 | 18095 ft | 313 kts | 230° |
| 2026-05-04 17:25 | 56.44822 | 13.09001 | 17289 ft | 309 kts | 230° |
| 2026-05-04 17:26 | 56.41865 | 13.03481 | 16446 ft | 306 kts | 230° |
| 2026-05-04 17:26 | 56.37475 | 12.95310 | 15233 ft | 302 kts | 230° |
| 2026-05-04 17:27 | 56.34577 | 12.89931 | 14475 ft | 296 kts | 230° |
| 2026-05-04 17:27 | 56.31797 | 12.84795 | 13735 ft | 278 kts | 230° |
| 2026-05-04 17:28 | 56.29212 | 12.80023 | 12956 ft | 265 kts | 230° |
| 2026-05-04 17:29 | 56.25405 | 12.72998 | 11874 ft | 261 kts | 230° |
| 2026-05-04 17:29 | 56.21651 | 12.66100 | 10836 ft | 258 kts | 230° |
| 2026-05-04 17:30 | 56.17908 | 12.59274 | 9925 ft | 256 kts | 226° |
| 2026-05-04 17:31 | 56.14707 | 12.56307 | 9919 ft | 267 kts | 201° |
| 2026-05-04 17:31 | 56.09373 | 12.53817 | 8845 ft | 266 kts | 200° |
| 2026-05-04 17:32 | 56.05819 | 12.52168 | 8119 ft | 264 kts | 199° |
| 2026-05-04 17:33 | 56.00552 | 12.49714 | 7030 ft | 262 kts | 199° |
| 2026-05-04 17:33 | 55.98805 | 12.48901 | 6666 ft | 261 kts | 199° |
| 2026-05-04 17:34 | 55.93589 | 12.46473 | 5599 ft | 258 kts | 199° |
| 2026-05-04 17:34 | 55.91870 | 12.45662 | 5251 ft | 257 kts | 199° |
| 2026-05-04 17:35 | 55.86678 | 12.43846 | 4897 ft | 261 kts | 173° |
| 2026-05-04 17:35 | 55.83581 | 12.46819 | 4442 ft | 249 kts | 146° |
| 2026-05-04 17:35 | 55.82195 | 12.48630 | 4194 ft | 245 kts | 146° |
| 2026-05-04 17:36 | 55.80842 | 12.50417 | 3976 ft | 244 kts | 146° |
| 2026-05-04 17:36 | 55.79480 | 12.52214 | 3972 ft | 246 kts | 146° |
| 2026-05-04 17:36 | 55.78113 | 12.54017 | 3973 ft | 246 kts | 146° |
| 2026-05-04 17:36 | 55.76747 | 12.55821 | 3965 ft | 246 kts | 146° |
| 2026-05-04 17:37 | 55.75379 | 12.57627 | 3961 ft | 246 kts | 146° |
| 2026-05-04 17:37 | 55.74018 | 12.59462 | 3963 ft | 247 kts | 140° |
| 2026-05-04 17:37 | 55.73020 | 12.61932 | 3932 ft | 248 kts | 108° |
| 2026-05-04 17:37 | 55.72866 | 12.64924 | 3947 ft | 246 kts | 76° |
| 2026-05-04 17:38 | 55.73565 | 12.67572 | 3965 ft | 232 kts | 45° |
| 2026-05-04 17:38 | 55.74653 | 12.69512 | 3983 ft | 217 kts | 37° |
| 2026-05-04 17:38 | 55.75777 | 12.71246 | 3978 ft | 215 kts | 36° |
| 2026-05-04 17:38 | 55.76910 | 12.72949 | 3972 ft | 214 kts | 36° |
| 2026-05-04 17:39 | 55.79182 | 12.76344 | 3972 ft | 214 kts | 35° |
| 2026-05-04 17:39 | 55.80311 | 12.78040 | 3971 ft | 214 kts | 36° |
| 2026-05-04 17:39 | 55.81442 | 12.79737 | 3970 ft | 213 kts | 36° |
| 2026-05-04 17:40 | 55.82401 | 12.81744 | 3942 ft | 220 kts | 63° |
| 2026-05-04 17:40 | 55.82643 | 12.84398 | 3705 ft | 224 kts | 98° |
| 2026-05-04 17:40 | 55.82019 | 12.86891 | 3375 ft | 225 kts | 134° |
| 2026-05-04 17:40 | 55.80739 | 12.88337 | 3068 ft | 218 kts | 171° |
| 2026-05-04 17:41 | 55.79259 | 12.88405 | 2985 ft | 212 kts | 191° |
| 2026-05-04 17:41 | 55.77819 | 12.87936 | 2971 ft | 210 kts | 203° |
| 2026-05-04 17:41 | 55.76460 | 12.87058 | 2970 ft | 209 kts | 207° |
| 2026-05-04 17:41 | 55.75163 | 12.85959 | 2950 ft | 206 kts | 216° |
| 2026-05-04 17:42 | 55.73998 | 12.84532 | 2904 ft | 202 kts | 224° |
| 2026-05-04 17:42 | 55.72977 | 12.82973 | 2784 ft | 189 kts | 227° |
| 2026-05-04 17:42 | 55.72017 | 12.81430 | 2529 ft | 184 kts | 227° |
| 2026-05-04 17:42 | 55.71067 | 12.79922 | 2255 ft | 182 kts | 227° |
| 2026-05-04 17:43 | 55.70133 | 12.78472 | 1992 ft | 178 kts | 226° |
| 2026-05-04 17:43 | 55.69218 | 12.77067 | 1739 ft | 172 kts | 226° |
| 2026-05-04 17:43 | 55.68336 | 12.75713 | 1508 ft | 166 kts | 226° |
| 2026-05-04 17:43 | 55.67484 | 12.74401 | 1290 ft | 161 kts | 226° |
| 2026-05-04 17:44 | 55.66646 | 12.73107 | 1092 ft | 160 kts | 226° |
| 2026-05-04 17:44 | 55.65819 | 12.71831 | 880 ft | 154 kts | 226° |
| 2026-05-04 17:44 | 55.65043 | 12.70636 | 678 ft | 141 kts | 226° |
| 2026-05-04 17:44 | 55.64338 | 12.69547 | 485 ft | 133 kts | 226° |
| 2026-05-04 17:45 | 55.63653 | 12.68485 | 319 ft | 131 kts | 226° |
| 2026-05-04 17:45 | 55.62975 | 12.67436 | 152 ft | 131 kts | 225° |
| 2026-05-04 17:45 | 55.62300 | 12.66391 | 12 ft | 125 kts | 225° |
| 2026-05-04 17:45 | 55.61820 | 12.65630 | 8 ft | 57 kts | 223° |
| 2026-05-04 17:46 | 55.61617 | 12.65260 | 8 ft | 22 kts | 243° |
| 2026-05-04 17:46 | 55.61616 | 12.65044 | 8 ft | 16 kts | 291° |
| 2026-05-04 17:46 | 55.61652 | 12.64939 | 8 ft | 0 kts | 309° |
| 2026-05-04 17:47 | 55.61678 | 12.64888 | 9 ft | 11 kts | 315° |
| 2026-05-04 17:47 | 55.61745 | 12.64807 | 9 ft | 12 kts | 338° |
| 2026-05-04 17:47 | 55.61830 | 12.64781 | 9 ft | 13 kts | 2° |
| 2026-05-04 17:48 | 55.61915 | 12.64841 | 9 ft | 14 kts | 32° |
| 2026-05-04 17:48 | 55.61996 | 12.64937 | 9 ft | 14 kts | 34° |
| 2026-05-04 17:48 | 55.62081 | 12.65037 | 9 ft | 15 kts | 33° |
| 2026-05-04 17:48 | 55.62116 | 12.65077 | 9 ft | 0 kts | 33° |
| 2026-05-04 17:49 | 55.62152 | 12.65119 | 9 ft | 11 kts | 32° |
| 2026-05-04 17:50 | 55.62186 | 12.65157 | 9 ft | 5 kts | 33° |
| 2026-05-04 17:50 | 55.62218 | 12.65175 | 10 ft | 4 kts | 1° |
| 2026-05-04 17:50 | 55.62220 | 12.65175 | 10 ft | 0 kts | 0° |
| 2026-05-04 17:50 | 55.62239 | 12.65158 | 10 ft | 4 kts | 319° |
| 2026-05-04 17:51 | 55.62261 | 12.65114 | 11 ft | 6 kts | 308° |
| 2026-05-04 17:51 | 55.62285 | 12.65053 | 11 ft | 7 kts | 303° |
| 2026-05-04 17:51 | 55.62324 | 12.64947 | 11 ft | 15 kts | 302° |
| 2026-05-04 17:51 | 55.62381 | 12.64785 | 10 ft | 16 kts | 303° |
| 2026-05-04 17:52 | 55.62429 | 12.64656 | 10 ft | 4 kts | 303° |
| 2026-05-04 17:52 | 55.62446 | 12.64611 | 11 ft | 5 kts | 303° |
| 2026-05-04 17:52 | 55.62469 | 12.64548 | 11 ft | 7 kts | 303° |
| 2026-05-04 17:52 | 55.62510 | 12.64440 | 11 ft | 10 kts | 304° |
| 2026-05-04 17:53 | 55.62518 | 12.64420 | 11 ft | 2 kts | 305° |
| 2026-05-04 17:53 | 55.62547 | 12.64345 | 10 ft | 11 kts | 304° |
| 2026-05-04 17:53 | 55.62610 | 12.64283 | 11 ft | 11 kts | 15° |
| 2026-05-04 17:53 | 55.62679 | 12.64329 | 12 ft | 8 kts | 20° |
| 2026-05-04 17:54 | 55.62719 | 12.64306 | 12 ft | 5 kts | 302° |
| 2026-05-04 17:54 | 55.62730 | 12.64278 | 12 ft | 0 kts | 303° |